createdAt,value
2022-09-20T00:03:37.053Z,574.3796
2022-09-20T00:08:38.818Z,479.331
2022-09-20T00:13:40.495Z,412.42965
2022-09-20T00:18:42.129Z,124.54225
2022-09-20T00:23:43.779Z,138.18785
2022-09-20T00:28:45.712Z,137.45005
2022-09-20T00:33:47.330Z,133.5956
2022-09-20T00:38:48.952Z,122.77005
2022-09-20T00:43:50.595Z,115.9644
2022-09-20T00:48:52.351Z,106.00595
2022-09-20T00:53:54.071Z,102.70485
2022-09-20T00:58:55.775Z,91.6397
2022-09-20T01:03:57.476Z,82.76895
2022-09-20T01:08:59.541Z,78.1767
2022-09-20T01:14:01.140Z,70.04375
2022-09-20T01:19:02.788Z,64.05005
2022-09-20T01:24:04.403Z,53.2245
2022-09-20T01:29:06.020Z,42.39895
2022-09-20T01:34:07.667Z,34.5056
2022-09-20T01:39:09.351Z,27.1656
2022-09-20T01:44:11.007Z,20.98745
2022-09-20T01:49:12.679Z,13.8319
2022-09-20T01:54:14.302Z,7.65375
2022-09-20T01:59:23.595Z,4.7767
2022-09-20T02:04:26.415Z,2.13325
2022-09-20T02:09:28.064Z,1.2444
2022-09-20T02:14:29.792Z,0.47405
2022-09-20T02:19:31.438Z,0
2022-09-20T02:24:33.074Z,0
2022-09-20T02:29:34.767Z,0
2022-09-20T02:34:36.401Z,0
2022-09-20T02:39:38.055Z,0
2022-09-20T02:44:39.677Z,0
2022-09-20T02:49:41.295Z,0
2022-09-20T02:54:43.038Z,0
2022-09-20T02:59:44.773Z,0
2022-09-20T03:04:46.456Z,0
2022-09-20T03:09:48.220Z,0
2022-09-20T03:14:49.876Z,0
2022-09-20T03:19:51.481Z,0
2022-09-20T03:24:53.127Z,0
2022-09-20T03:29:54.795Z,0
2022-09-20T03:34:56.425Z,0
2022-09-20T03:39:58.129Z,0
2022-09-20T03:45:00.018Z,0
2022-09-20T03:50:01.622Z,0
2022-09-20T03:55:03.383Z,0
2022-09-20T04:00:05.065Z,0
2022-09-20T04:05:06.676Z,0
2022-09-20T04:10:08.291Z,0
2022-09-20T04:15:10.045Z,0
2022-09-20T04:20:11.673Z,0
2022-09-20T04:25:13.469Z,0
2022-09-20T04:30:15.190Z,0
2022-09-20T04:35:17.084Z,0
2022-09-20T04:40:18.798Z,0
2022-09-20T04:45:20.501Z,0
2022-09-20T04:50:22.112Z,0
2022-09-20T04:55:23.704Z,0
2022-09-20T05:00:25.446Z,0
2022-09-20T05:05:27.155Z,0
2022-09-20T05:10:28.811Z,0
2022-09-20T05:15:30.451Z,0
2022-09-20T05:20:32.103Z,0
2022-09-20T05:25:33.701Z,0
2022-09-20T05:30:35.359Z,0
2022-09-20T05:35:36.960Z,0
2022-09-20T05:40:38.618Z,0
2022-09-20T05:45:40.294Z,0
2022-09-20T05:50:41.930Z,0
2022-09-20T05:55:43.617Z,0
2022-09-20T06:00:45.361Z,0
2022-09-20T06:05:47.029Z,0
2022-09-20T06:10:48.612Z,0
2022-09-20T06:15:50.497Z,0
2022-09-20T06:20:52.151Z,0
2022-09-20T06:25:53.805Z,0
2022-09-20T06:30:55.428Z,0
2022-09-20T06:35:59.198Z,0
2022-09-20T06:41:01.103Z,0
2022-09-20T06:46:02.790Z,0
2022-09-20T06:51:04.492Z,0
2022-09-20T06:56:06.388Z,0
2022-09-20T07:01:08.058Z,0
2022-09-20T07:06:09.691Z,0
2022-09-20T07:11:11.350Z,0
2022-09-20T07:16:13.118Z,0
2022-09-20T07:21:14.773Z,0
2022-09-20T07:26:16.357Z,0
2022-09-20T07:31:18.051Z,0
2022-09-20T07:36:19.720Z,0
2022-09-20T07:41:21.349Z,0
2022-09-20T07:46:23.081Z,0
2022-09-20T07:51:24.733Z,0
2022-09-20T07:56:26.357Z,0
2022-09-20T08:01:28.067Z,0
2022-09-20T08:06:29.801Z,0
2022-09-20T08:11:31.557Z,0
2022-09-20T08:16:33.291Z,0
2022-09-20T08:21:34.960Z,0
2022-09-20T08:26:36.585Z,0
2022-09-20T08:31:38.374Z,0
2022-09-20T08:36:40.037Z,0
2022-09-20T08:41:41.795Z,0
2022-09-20T08:46:43.401Z,0
2022-09-20T08:51:48.571Z,0
2022-09-20T08:56:50.559Z,0
2022-09-20T09:01:52.221Z,0
2022-09-20T09:06:53.826Z,0
2022-09-20T09:11:55.579Z,0
2022-09-20T09:16:57.224Z,0
2022-09-20T09:21:58.841Z,0
2022-09-20T09:27:00.431Z,0
2022-09-20T09:32:02.219Z,0
2022-09-20T09:37:03.934Z,0
2022-09-20T09:42:05.589Z,0
2022-09-20T09:47:07.269Z,0
2022-09-20T09:52:08.930Z,0
2022-09-20T09:57:10.628Z,0
2022-09-20T10:02:12.316Z,0
2022-09-20T10:07:13.954Z,0
2022-09-20T10:12:15.576Z,0
2022-09-20T10:17:17.155Z,0
2022-09-20T10:22:18.764Z,0
2022-09-20T10:27:20.385Z,0
2022-09-20T10:32:22.004Z,0
2022-09-20T10:37:23.572Z,0
2022-09-20T10:42:25.224Z,0
2022-09-20T10:47:26.928Z,0
2022-09-20T10:52:28.563Z,0
2022-09-20T10:57:30.198Z,0
2022-09-20T11:02:32.214Z,0
2022-09-20T11:07:34.000Z,0
2022-09-20T11:12:35.641Z,0
2022-09-20T11:17:37.235Z,0
2022-09-20T11:22:38.857Z,0
2022-09-20T11:27:40.596Z,0
2022-09-20T11:32:42.217Z,0
2022-09-20T11:37:43.815Z,0
2022-09-20T11:42:45.447Z,0
2022-09-20T11:47:55.076Z,0
2022-09-20T11:52:57.595Z,0
2022-09-20T11:57:59.202Z,0
2022-09-20T12:03:01.065Z,0
2022-09-20T12:08:02.747Z,0
2022-09-20T12:13:04.384Z,0
2022-09-20T12:18:09.250Z,0
2022-09-20T12:23:11.300Z,0
2022-09-20T12:28:12.941Z,0
2022-09-20T12:33:14.585Z,0
2022-09-20T12:38:16.212Z,0
2022-09-20T12:43:17.867Z,0
2022-09-20T12:48:19.452Z,0
2022-09-20T12:53:21.133Z,0
2022-09-20T12:58:22.757Z,0
2022-09-20T13:03:24.371Z,0
2022-09-20T13:08:25.989Z,0
2022-09-20T13:13:27.646Z,0.4148
2022-09-20T13:18:29.272Z,2.50815
2022-09-20T13:23:30.982Z,2.87705
2022-09-20T13:28:32.594Z,3.4304
2022-09-20T13:33:34.203Z,4.5628
2022-09-20T13:38:35.825Z,11.1393
2022-09-20T13:43:37.442Z,17.133
2022-09-20T13:48:39.071Z,23.1267
2022-09-20T13:53:42.103Z,31.0752
2022-09-20T13:58:44.251Z,38.0463
2022-09-20T14:03:45.945Z,45.9948
2022-09-20T14:08:47.583Z,54.9207
2022-09-20T14:13:49.196Z,57.6133
2022-09-20T14:18:50.806Z,68.67845
2022-09-20T14:23:52.443Z,73.5103
2022-09-20T14:28:54.238Z,82.01215
2022-09-20T14:33:55.885Z,79.81775
2022-09-20T14:38:57.483Z,494.2054
2022-09-20T14:43:59.075Z,414.2077
2022-09-20T14:49:00.713Z,383.7497
2022-09-20T14:54:02.368Z,304.1077
2022-09-20T14:59:03.993Z,267.6051
2022-09-20T15:04:05.656Z,261.0275
2022-09-20T15:09:07.457Z,244.79105
2022-09-20T15:14:09.107Z,240.88015
2022-09-20T15:19:10.714Z,284.7899
2022-09-20T15:24:12.348Z,289.35265
2022-09-20T15:29:14.044Z,293.8564
2022-09-20T15:34:15.716Z,334.68485
2022-09-20T15:39:17.289Z,337.2329
2022-09-20T15:44:18.915Z,324.9665
2022-09-20T15:49:20.537Z,302.3299
2022-09-20T15:54:22.158Z,303.6333
2022-09-20T15:59:23.818Z,315.7217
2022-09-20T16:04:25.463Z,330.6545
2022-09-20T16:09:27.288Z,349.61685
2022-09-20T16:14:28.955Z,383.86775
2022-09-20T16:19:30.550Z,436.0144
2022-09-20T16:24:32.185Z,517.49355
2022-09-20T16:29:33.794Z,536.4559
2022-09-20T16:34:35.519Z,531.71515
2022-09-20T16:39:37.120Z,493.84935
2022-09-20T16:44:38.739Z,477.0793
2022-09-20T16:49:40.326Z,481.40505
2022-09-20T16:54:42.010Z,483.53835
2022-09-20T16:59:43.645Z,475.7756
2022-09-20T17:04:45.382Z,484.54565
2022-09-20T17:09:47.006Z,500.5451
2022-09-20T17:14:48.758Z,511.2706
2022-09-20T17:19:50.383Z,535.8625
2022-09-20T17:24:52.022Z,577.6983
2022-09-20T17:29:53.649Z,616.038
2022-09-20T17:34:55.318Z,609.4603
2022-09-20T17:39:56.961Z,643.4149
2022-09-20T17:44:58.590Z,661.84395
2022-09-20T17:50:00.205Z,690.584
2022-09-20T17:55:01.963Z,693.78385
2022-09-20T18:00:03.568Z,717.66485
2022-09-20T18:05:05.240Z,726.0795
2022-09-20T18:10:06.872Z,709.13195
2022-09-20T18:15:08.752Z,634.1117
2022-09-20T18:20:10.357Z,616.8677
2022-09-20T18:25:12.026Z,601.40145
2022-09-20T18:30:13.746Z,578.76505
2022-09-20T18:35:15.364Z,562.5876
2022-09-20T18:40:17.027Z,545.1658
2022-09-20T18:45:18.658Z,555.18035
2022-09-20T18:50:20.270Z,543.21025
2022-09-20T18:55:21.942Z,536.27705
2022-09-20T19:00:23.566Z,553.46175
2022-09-20T19:05:25.183Z,563.0023
2022-09-20T19:10:26.767Z,555.71365
2022-09-20T19:15:28.424Z,525.67
2022-09-20T19:20:30.034Z,526.8551
2022-09-20T19:25:31.670Z,525.78855
2022-09-20T19:30:33.371Z,523.83295
2022-09-20T19:35:34.969Z,530.8254
2022-09-20T19:40:36.625Z,536.81025
2022-09-20T19:45:38.387Z,549.3137
2022-09-20T19:50:40.001Z,561.8764
2022-09-20T19:55:41.722Z,569.28355
2022-09-20T20:00:43.322Z,588.1868
2022-09-20T20:05:44.935Z,599.5052
2022-09-20T20:10:46.555Z,604.71995
2022-09-20T20:15:48.241Z,599.74235
2022-09-20T20:20:50.032Z,597.1944
2022-09-20T20:25:51.663Z,595.35735
2022-09-20T20:30:56.664Z,594.52775
2022-09-20T20:36:01.431Z,600.3944
2022-09-20T20:41:03.063Z,605.25355
2022-09-20T20:46:04.802Z,606.97205
2022-09-20T20:51:06.435Z,620.48285
2022-09-20T20:56:08.159Z,636.83795
2022-09-20T21:01:09.972Z,646.49685
2022-09-20T21:06:11.656Z,660.5999
2022-09-20T21:11:13.267Z,665.75525
2022-09-20T21:16:14.862Z,673.0439
2022-09-20T21:21:16.563Z,683.2362
2022-09-20T21:26:18.207Z,700.42095
2022-09-20T21:31:19.935Z,708.1838
2022-09-20T21:36:21.656Z,710.19875
2022-09-20T21:41:23.287Z,716.3023
2022-09-20T21:46:24.983Z,728.2725
2022-09-20T21:51:26.598Z,752.80515
2022-09-20T21:56:28.304Z,779.88585
2022-09-20T22:01:30.033Z,790.25585
2022-09-20T22:06:31.720Z,797.5444
2022-09-20T22:11:33.392Z,810.8772
2022-09-20T22:16:35.001Z,813.1881
2022-09-20T22:21:36.585Z,820.1805
2022-09-20T22:26:38.242Z,830.3134
2022-09-20T22:31:39.858Z,830.8467
2022-09-20T22:36:41.484Z,841.74995
2022-09-20T22:41:43.147Z,843.34985
2022-09-20T22:46:44.785Z,869.3637
2022-09-20T22:51:46.508Z,845.3643
2022-09-20T22:56:48.121Z,834.935
2022-09-20T23:01:49.796Z,831.735
2022-09-20T23:06:51.431Z,798.847
2022-09-20T23:11:53.787Z,785.51405
2022-09-20T23:16:55.398Z,759.67775
2022-09-20T23:21:57.184Z,743.50055
2022-09-20T23:26:58.842Z,719.2049
2022-09-20T23:32:00.421Z,699.7685
2022-09-20T23:37:02.029Z,676.18405
2022-09-20T23:42:03.794Z,655.74025
2022-09-20T23:47:05.413Z,637.0148
2022-09-20T23:52:07.020Z,617.9339
2022-09-20T23:57:08.597Z,595.4752
